createdAt,value
2023-03-28T00:03:46.487Z,19.1
2023-03-28T00:14:59.464Z,18.6
2023-03-28T00:20:35.262Z,18.4
2023-03-28T00:26:10.812Z,18.3
2023-03-28T00:31:31.017Z,18.2
2023-03-28T00:37:23.022Z,18.1
2023-03-28T00:42:58.961Z,18.5
2023-03-28T00:49:08.114Z,20.9
2023-03-28T00:54:44.158Z,20
2023-03-28T01:00:19.887Z,19.3
2023-03-28T01:05:57.115Z,18.8
2023-03-28T01:11:33.351Z,18.4
2023-03-28T01:17:12.081Z,18.4
2023-03-28T01:22:32.757Z,18.2
2023-03-28T01:27:34.525Z,18.1
2023-03-28T01:33:10.382Z,18
2023-03-28T01:38:47.895Z,17.9
2023-03-28T01:44:24.117Z,18.3
2023-03-28T01:50:00.619Z,20.6
2023-03-28T01:55:41.690Z,20.3
2023-03-28T02:01:19.729Z,19.3
2023-03-28T02:06:56.132Z,18.8
2023-03-28T02:12:47.967Z,18.4
2023-03-28T02:18:39.227Z,18.3
2023-03-28T02:24:15.397Z,18.1
2023-03-28T02:30:07.564Z,17.9
2023-03-28T02:35:59.079Z,17.9
2023-03-28T02:41:50.393Z,17.7
2023-03-28T02:47:45.620Z,19.2
2023-03-28T02:53:15.146Z,20.9
2023-03-28T02:59:06.419Z,19.8
2023-03-28T03:04:44.149Z,19.1
2023-03-28T03:10:20.465Z,18.6
2023-03-28T03:15:57.006Z,18.3
2023-03-28T03:21:33.388Z,18.1
2023-03-28T03:26:55.749Z,18
2023-03-28T03:32:41.419Z,17.9
2023-03-28T03:38:20.948Z,18.6
2023-03-28T03:43:57.434Z,20.6
2023-03-28T03:49:24.150Z,20.1
2023-03-28T03:55:00.608Z,19.1
2023-03-28T04:00:21.450Z,18.5
2023-03-28T04:06:10.978Z,18.2
2023-03-28T04:11:47.392Z,18
2023-03-28T04:17:31.580Z,17.8
2023-03-28T04:23:35.889Z,17.8
2023-03-28T04:29:12.350Z,17.8
2023-03-28T04:34:49.330Z,20.2
2023-03-28T04:39:47.422Z,17.6
2023-03-28T04:45:08.669Z,19.8
2023-03-28T04:51:00.745Z,20.9
2023-03-28T04:56:52.610Z,19.3
2023-03-28T05:02:29.335Z,18.8
2023-03-28T05:08:22.308Z,18.3
2023-03-28T05:14:13.575Z,18
2023-03-28T05:20:09.522Z,17.8
2023-03-28T05:26:04.560Z,17.8
2023-03-28T05:31:55.059Z,17.5
2023-03-28T05:37:47.538Z,19.7
2023-03-28T05:43:38.905Z,20.8
2023-03-28T05:49:29.828Z,19.4
2023-03-28T06:01:02.248Z,18.2
2023-03-28T06:06:55.320Z,17.9
2023-03-28T06:12:59.951Z,17.8
2023-03-28T06:19:10.818Z,17.6
2023-03-28T06:24:53.244Z,17.4
2023-03-28T06:30:45.239Z,19.5
2023-03-28T06:36:37.919Z,20.7
2023-03-28T06:42:30.051Z,19.4
2023-03-28T06:53:43.000Z,18.1
2023-03-28T06:59:33.911Z,17.9
2023-03-28T07:05:30.072Z,17.7
2023-03-28T07:11:05.830Z,17.6
2023-03-28T07:16:59.104Z,17.4
2023-03-28T07:22:59.869Z,19.2
2023-03-28T07:29:09.651Z,20.5
2023-03-28T07:35:33.408Z,19.5
2023-03-28T07:46:29.810Z,18.1
2023-03-28T07:52:21.552Z,17.9
2023-03-28T07:58:23.724Z,17.7
2023-03-28T08:04:16.018Z,17.6
2023-03-28T08:10:22.153Z,17.3
2023-03-28T08:16:14.088Z,19.2
2023-03-28T08:22:17.836Z,20.4
2023-03-28T08:28:03.983Z,19.4
2023-03-28T08:33:55.770Z,18.6
2023-03-28T08:39:50.746Z,18.1
2023-03-28T08:45:26.763Z,17.8
2023-03-28T08:51:21.303Z,17.6
2023-03-28T08:57:15.009Z,17.5
2023-03-28T09:03:09.220Z,17.3
2023-03-28T09:09:16.716Z,19.1
2023-03-28T09:14:53.047Z,18.4
2023-03-28T09:20:54.816Z,19.7
2023-03-28T09:26:59.945Z,20.3
2023-03-28T09:32:37.547Z,18.8
2023-03-28T09:38:41.152Z,18.1
2023-03-28T09:44:38.403Z,17.7
2023-03-28T09:50:46.343Z,17.6
2023-03-28T09:56:31.675Z,17.4
2023-03-28T10:02:24.295Z,17.3
2023-03-28T10:08:15.915Z,17.9
2023-03-28T10:14:06.724Z,20.1
2023-03-28T10:19:58.623Z,19.8
2023-03-28T10:25:49.135Z,18.6
2023-03-28T10:31:25.287Z,17.9
2023-03-28T10:37:18.920Z,17.6
2023-03-28T10:43:11.267Z,17.3
2023-03-28T10:49:02.420Z,18.6
2023-03-28T10:54:53.820Z,20.4
2023-03-28T11:00:46.204Z,19.3
2023-03-28T11:06:55.746Z,18.6
2023-03-28T11:13:05.010Z,18.3
2023-03-28T11:18:41.569Z,17.9
2023-03-28T11:24:45.117Z,17.7
2023-03-28T11:31:05.222Z,19.8
2023-03-28T11:36:41.610Z,20.1
2023-03-28T11:42:34.584Z,18.9
2023-03-28T11:48:40.157Z,18.4
2023-03-28T11:54:32.233Z,18.1
2023-03-28T12:00:32.579Z,17.8
2023-03-28T12:06:31.662Z,18.6
2023-03-28T12:12:34.475Z,20.6
2023-03-28T12:18:38.084Z,19.3
2023-03-28T12:24:31.294Z,18.6
2023-03-28T12:30:07.305Z,18.4
2023-03-28T12:35:59.875Z,18.1
2023-03-28T12:41:36.439Z,17.9
2023-03-28T12:47:28.675Z,19.6
2023-03-28T12:53:20.690Z,20.9
2023-03-28T12:59:14.587Z,19.3
2023-03-28T13:05:06.495Z,18.8
2023-03-28T13:10:58.832Z,18.4
2023-03-28T13:16:51.039Z,18.3
2023-03-28T13:22:27.806Z,18
2023-03-28T13:28:05.200Z,20.3
2023-03-28T13:33:56.893Z,20.3
2023-03-28T13:39:36.968Z,19.1
2023-03-28T13:51:00.056Z,18.4
2023-03-28T13:57:04.681Z,18.1
2023-03-28T14:02:56.708Z,17.9
2023-03-28T14:08:49.891Z,20.4
2023-03-28T14:14:43.586Z,20
2023-03-28T14:32:16.105Z,18.4
2023-03-28T14:38:17.307Z,18.1
2023-03-28T14:44:08.480Z,17.8
2023-03-28T14:50:00.357Z,17.7
2023-03-28T14:55:54.072Z,17.4
2023-03-28T15:01:45.566Z,17.2
2023-03-28T15:13:17.888Z,16.9
2023-03-28T15:19:10.677Z,16.8
2023-03-28T15:25:02.242Z,16.8
2023-03-28T15:30:56.016Z,16.7
2023-03-28T15:36:35.003Z,16.7
2023-03-28T15:42:25.958Z,16.8
2023-03-28T15:48:17.327Z,16.9
2023-03-28T15:54:20.517Z,17.1
2023-03-28T16:00:19.642Z,17.1
2023-03-28T16:05:57.947Z,17.1
2023-03-28T16:12:06.261Z,17.1
2023-03-28T16:17:43.221Z,17.2
2023-03-28T16:23:34.174Z,17.3
2023-03-28T16:29:11.167Z,17.2
2023-03-28T16:34:48.410Z,17.2
2023-03-28T16:40:40.120Z,17.2
2023-03-28T16:46:31.193Z,17.2
2023-03-28T16:52:22.560Z,17.2
2023-03-28T16:57:43.015Z,17.2
2023-03-28T17:03:36.242Z,17.3
2023-03-28T17:09:30.615Z,17.4
2023-03-28T17:15:22.556Z,17.5
2023-03-28T17:20:43.603Z,17.6
2023-03-28T17:26:51.620Z,17.7
2023-03-28T17:32:44.950Z,17.7
2023-03-28T17:38:37.510Z,17.8
2023-03-28T17:44:29.546Z,17.8
2023-03-28T17:50:24.765Z,17.9
2023-03-28T17:56:02.234Z,17.9
2023-03-28T18:01:39.390Z,17.9
2023-03-28T18:07:34.277Z,18
2023-03-28T18:13:26.636Z,18
2023-03-28T18:19:03.585Z,18
2023-03-28T18:24:38.881Z,17.9
2023-03-28T18:30:18.228Z,17.9
2023-03-28T18:36:14.920Z,17.9
2023-03-28T18:41:38.652Z,17.8
2023-03-28T18:47:31.523Z,17.8
2023-03-28T18:53:08.313Z,17.8
2023-03-28T18:58:45.861Z,17.6
2023-03-28T19:04:25.091Z,17.6
2023-03-28T19:09:47.076Z,17.6
2023-03-28T19:15:24.070Z,17.6
2023-03-28T19:20:48.780Z,17.4
2023-03-28T19:26:26.613Z,17.4
2023-03-28T19:32:20.868Z,17.3
2023-03-28T19:38:14.576Z,17.1
2023-03-28T19:49:35.325Z,16.9
2023-03-28T19:55:28.142Z,16.8
2023-03-28T20:01:20.932Z,16.6
2023-03-28T20:06:42.945Z,16.5
2023-03-28T20:12:21.967Z,16.4
2023-03-28T20:17:59.971Z,16.3
2023-03-28T20:23:51.796Z,16.3
2023-03-28T20:29:28.067Z,16.1
2023-03-28T20:35:19.791Z,16.1
2023-03-28T20:41:11.845Z,16.4
2023-03-28T20:46:49.866Z,18.8
2023-03-28T20:52:45.238Z,18.8
2023-03-28T20:58:37.607Z,18.5
2023-03-28T21:04:29.574Z,18.2
2023-03-28T21:10:20.807Z,18.1
2023-03-28T21:16:12.688Z,17.9
2023-03-28T21:21:48.592Z,17.9
2023-03-28T21:27:24.528Z,17.8
2023-03-28T21:32:45.738Z,17.8
2023-03-28T21:38:22.992Z,17.6
2023-03-28T21:43:58.864Z,17.7
2023-03-28T21:48:48.820Z,18.4
2023-03-28T21:54:40.556Z,20.4
2023-03-28T22:00:33.737Z,19.8
2023-03-28T22:06:20.092Z,19.1
2023-03-28T22:11:10.222Z,18.5
2023-03-28T22:16:46.903Z,18.3
2023-03-28T22:22:07.394Z,18.1
2023-03-28T22:27:11.995Z,17.9
2023-03-28T22:32:48.361Z,17.9
2023-03-28T22:38:23.850Z,17.7
2023-03-28T22:43:59.836Z,17.6
2023-03-28T22:49:21.287Z,18.1
2023-03-28T22:54:57.778Z,20.3
2023-03-28T23:00:19.322Z,20.3
2023-03-28T23:06:11.408Z,19.3
2023-03-28T23:11:47.023Z,18.6
2023-03-28T23:17:39.192Z,18.2
2023-03-28T23:23:16.158Z,18
2023-03-28T23:29:09.907Z,17.8
2023-03-28T23:35:01.226Z,17.7
2023-03-28T23:40:53.449Z,17.6
2023-03-28T23:46:29.405Z,20.1
2023-03-28T23:51:50.426Z,20.9
2023-03-28T23:57:11.195Z,19.4
